sensor_id;sensor_type;location;lat;lon;timestamp;P1;durP1;ratioP1;P2;durP2;ratioP2
4921;SDS011;16625;53.624;10.106;2023-04-01T00:00:11;14.47;;;6.57;;
4921;SDS011;16625;53.624;10.106;2023-04-01T00:03:16;9.67;;;4.57;;
4921;SDS011;16625;53.624;10.106;2023-04-01T00:06:02;11.27;;;5.20;;
4921;SDS011;16625;53.624;10.106;2023-04-01T00:08:57;8.83;;;6.27;;
4921;SDS011;16625;53.624;10.106;2023-04-01T00:12:02;9.07;;;5.87;;
4921;SDS011;16625;53.624;10.106;2023-04-01T00:14:55;9.00;;;5.03;;
4921;SDS011;16625;53.624;10.106;2023-04-01T00:17:28;14.07;;;6.73;;
4921;SDS011;16625;53.624;10.106;2023-04-01T00:22:48;15.17;;;5.57;;
4921;SDS011;16625;53.624;10.106;2023-04-01T00:28:50;14.07;;;5.73;;
4921;SDS011;16625;53.624;10.106;2023-04-01T00:31:31;10.47;;;5.67;;
4921;SDS011;16625;53.624;10.106;2023-04-01T00:34:07;11.53;;;5.60;;
4921;SDS011;16625;53.624;10.106;2023-04-01T00:37:13;10.57;;;6.57;;
4921;SDS011;16625;53.624;10.106;2023-04-01T00:40:27;13.47;;;6.00;;
4921;SDS011;16625;53.624;10.106;2023-04-01T00:43:13;11.77;;;6.33;;
4921;SDS011;16625;53.624;10.106;2023-04-01T00:46:09;15.67;;;6.70;;
4921;SDS011;16625;53.624;10.106;2023-04-01T00:49:12;12.10;;;5.93;;
4921;SDS011;16625;53.624;10.106;2023-04-01T00:52:01;10.13;;;5.43;;
4921;SDS011;16625;53.624;10.106;2023-04-01T00:58:10;12.50;;;5.70;;
4921;SDS011;16625;53.624;10.106;2023-04-01T01:01:09;15.10;;;6.90;;
4921;SDS011;16625;53.624;10.106;2023-04-01T01:04:19;9.73;;;7.23;;
4921;SDS011;16625;53.624;10.106;2023-04-01T01:07:16;10.43;;;7.00;;
4921;SDS011;16625;53.624;10.106;2023-04-01T01:10:12;21.60;;;7.03;;
4921;SDS011;16625;53.624;10.106;2023-04-01T01:13:30;10.90;;;6.13;;
4921;SDS011;16625;53.624;10.106;2023-04-01T01:16:26;12.77;;;6.47;;
4921;SDS011;16625;53.624;10.106;2023-04-01T01:19:40;14.93;;;5.90;;
4921;SDS011;16625;53.624;10.106;2023-04-01T01:22:54;12.27;;;7.20;;
4921;SDS011;16625;53.624;10.106;2023-04-01T01:25:45;12.57;;;6.40;;
4921;SDS011;16625;53.624;10.106;2023-04-01T01:28:43;13.33;;;7.30;;
4921;SDS011;16625;53.624;10.106;2023-04-01T01:31:39;9.70;;;6.20;;
4921;SDS011;16625;53.624;10.106;2023-04-01T01:35:13;9.90;;;6.40;;
4921;SDS011;16625;53.624;10.106;2023-04-01T01:41:25;12.50;;;6.23;;
4921;SDS011;16625;53.624;10.106;2023-04-01T01:45:39;12.10;;;6.83;;
4921;SDS011;16625;53.624;10.106;2023-04-01T01:46:58;12.63;;;7.10;;
4921;SDS011;16625;53.624;10.106;2023-04-01T01:49:43;13.53;;;7.20;;
4921;SDS011;16625;53.624;10.106;2023-04-01T01:52:41;10.27;;;5.87;;
4921;SDS011;16625;53.624;10.106;2023-04-01T01:55:23;12.43;;;6.37;;
4921;SDS011;16625;53.624;10.106;2023-04-01T01:58:11;19.53;;;8.03;;
4921;SDS011;16625;53.624;10.106;2023-04-01T02:00:59;10.60;;;6.53;;
4921;SDS011;16625;53.624;10.106;2023-04-01T02:05:25;10.87;;;6.57;;
4921;SDS011;16625;53.624;10.106;2023-04-01T02:07:31;10.47;;;6.30;;
4921;SDS011;16625;53.624;10.106;2023-04-01T02:10:11;9.20;;;6.40;;
4921;SDS011;16625;53.624;10.106;2023-04-01T02:13:17;10.60;;;6.97;;
4921;SDS011;16625;53.624;10.106;2023-04-01T02:16:10;19.87;;;7.20;;
4921;SDS011;16625;53.624;10.106;2023-04-01T02:18:57;17.67;;;7.40;;
4921;SDS011;16625;53.624;10.106;2023-04-01T02:22:22;21.37;;;6.87;;
4921;SDS011;16625;53.624;10.106;2023-04-01T02:28:00;11.97;;;7.07;;
4921;SDS011;16625;53.624;10.106;2023-04-01T02:30:46;14.83;;;7.30;;
4921;SDS011;16625;53.624;10.106;2023-04-01T02:34:02;11.63;;;7.20;;
4921;SDS011;16625;53.624;10.106;2023-04-01T02:36:39;16.80;;;7.63;;
4921;SDS011;16625;53.624;10.106;2023-04-01T02:39:43;14.40;;;7.43;;
4921;SDS011;16625;53.624;10.106;2023-04-01T02:42:34;12.20;;;7.47;;
4921;SDS011;16625;53.624;10.106;2023-04-01T02:45:19;11.47;;;7.00;;
4921;SDS011;16625;53.624;10.106;2023-04-01T02:47:58;11.20;;;7.80;;
4921;SDS011;16625;53.624;10.106;2023-04-01T02:51:09;13.10;;;6.80;;
4921;SDS011;16625;53.624;10.106;2023-04-01T02:54:14;13.83;;;7.60;;
4921;SDS011;16625;53.624;10.106;2023-04-01T02:57:09;14.23;;;8.10;;
4921;SDS011;16625;53.624;10.106;2023-04-01T02:59:57;13.57;;;8.13;;
4921;SDS011;16625;53.624;10.106;2023-04-01T03:02:47;13.37;;;7.50;;
4921;SDS011;16625;53.624;10.106;2023-04-01T03:05:28;13.63;;;8.10;;
4921;SDS011;16625;53.624;10.106;2023-04-01T03:08:00;15.87;;;8.10;;
4921;SDS011;16625;53.624;10.106;2023-04-01T03:10:32;15.70;;;8.37;;
4921;SDS011;16625;53.624;10.106;2023-04-01T03:13:01;15.20;;;8.77;;
4921;SDS011;16625;53.624;10.106;2023-04-01T03:15:38;17.53;;;8.27;;
4921;SDS011;16625;53.624;10.106;2023-04-01T03:18:10;15.57;;;8.60;;
4921;SDS011;16625;53.624;10.106;2023-04-01T03:20:44;14.40;;;8.80;;
4921;SDS011;16625;53.624;10.106;2023-04-01T03:23:18;13.53;;;8.00;;
4921;SDS011;16625;53.624;10.106;2023-04-01T03:25:50;12.53;;;8.53;;
4921;SDS011;16625;53.624;10.106;2023-04-01T03:28:17;17.90;;;9.00;;
4921;SDS011;16625;53.624;10.106;2023-04-01T03:30:57;18.60;;;9.13;;
4921;SDS011;16625;53.624;10.106;2023-04-01T03:33:26;13.67;;;8.47;;
4921;SDS011;16625;53.624;10.106;2023-04-01T03:35:55;14.33;;;8.17;;
4921;SDS011;16625;53.624;10.106;2023-04-01T03:38:33;13.33;;;8.13;;
4921;SDS011;16625;53.624;10.106;2023-04-01T03:41:19;14.57;;;8.77;;
4921;SDS011;16625;53.624;10.106;2023-04-01T03:43:53;17.80;;;7.90;;
4921;SDS011;16625;53.624;10.106;2023-04-01T03:46:27;11.73;;;8.27;;
4921;SDS011;16625;53.624;10.106;2023-04-01T03:49:05;14.83;;;9.17;;
4921;SDS011;16625;53.624;10.106;2023-04-01T03:51:42;13.03;;;8.57;;
4921;SDS011;16625;53.624;10.106;2023-04-01T03:54:10;13.50;;;7.57;;
4921;SDS011;16625;53.624;10.106;2023-04-01T03:56:44;13.47;;;8.27;;
4921;SDS011;16625;53.624;10.106;2023-04-01T03:59:12;11.30;;;9.00;;
4921;SDS011;16625;53.624;10.106;2023-04-01T04:01:45;21.20;;;8.17;;
4921;SDS011;16625;53.624;10.106;2023-04-01T04:04:34;17.30;;;8.37;;
4921;SDS011;16625;53.624;10.106;2023-04-01T04:07:28;9.40;;;6.77;;
4921;SDS011;16625;53.624;10.106;2023-04-01T04:11:38;11.93;;;7.27;;
4921;SDS011;16625;53.624;10.106;2023-04-01T04:12:50;10.03;;;6.77;;
4921;SDS011;16625;53.624;10.106;2023-04-01T04:15:19;10.53;;;7.07;;
4921;SDS011;16625;53.624;10.106;2023-04-01T04:17:51;12.90;;;7.30;;
4921;SDS011;16625;53.624;10.106;2023-04-01T04:20:29;12.07;;;7.07;;
4921;SDS011;16625;53.624;10.106;2023-04-01T04:23:00;20.77;;;8.57;;
4921;SDS011;16625;53.624;10.106;2023-04-01T04:25:36;16.50;;;9.07;;
4921;SDS011;16625;53.624;10.106;2023-04-01T04:28:11;12.47;;;8.90;;
4921;SDS011;16625;53.624;10.106;2023-04-01T04:30:40;15.50;;;7.90;;
4921;SDS011;16625;53.624;10.106;2023-04-01T04:33:18;10.23;;;7.43;;
4921;SDS011;16625;53.624;10.106;2023-04-01T04:35:56;12.43;;;7.20;;
4921;SDS011;16625;53.624;10.106;2023-04-01T04:38:44;12.23;;;7.57;;
4921;SDS011;16625;53.624;10.106;2023-04-01T04:41:15;12.03;;;8.00;;
4921;SDS011;16625;53.624;10.106;2023-04-01T04:43:49;13.57;;;8.00;;
4921;SDS011;16625;53.624;10.106;2023-04-01T04:46:33;13.57;;;7.00;;
4921;SDS011;16625;53.624;10.106;2023-04-01T04:49:07;9.57;;;6.37;;
4921;SDS011;16625;53.624;10.106;2023-04-01T04:51:39;14.43;;;7.30;;
4921;SDS011;16625;53.624;10.106;2023-04-01T04:54:09;9.10;;;6.27;;
4921;SDS011;16625;53.624;10.106;2023-04-01T04:56:38;11.43;;;7.17;;
4921;SDS011;16625;53.624;10.106;2023-04-01T04:59:08;9.83;;;6.60;;
4921;SDS011;16625;53.624;10.106;2023-04-01T05:01:49;5.90;;;4.60;;
4921;SDS011;16625;53.624;10.106;2023-04-01T05:04:25;4.33;;;3.70;;
4921;SDS011;16625;53.624;10.106;2023-04-01T05:06:54;3.50;;;2.87;;
4921;SDS011;16625;53.624;10.106;2023-04-01T05:09:25;2.40;;;2.07;;
4921;SDS011;16625;53.624;10.106;2023-04-01T05:12:20;3.30;;;3.00;;
4921;SDS011;16625;53.624;10.106;2023-04-01T05:15:06;3.17;;;2.17;;
4921;SDS011;16625;53.624;10.106;2023-04-01T05:20:30;2.70;;;2.30;;
4921;SDS011;16625;53.624;10.106;2023-04-01T05:23:00;2.57;;;2.17;;
4921;SDS011;16625;53.624;10.106;2023-04-01T05:25:48;2.10;;;1.90;;
4921;SDS011;16625;53.624;10.106;2023-04-01T05:28:41;3.20;;;2.00;;
4921;SDS011;16625;53.624;10.106;2023-04-01T05:31:21;2.50;;;2.20;;
4921;SDS011;16625;53.624;10.106;2023-04-01T05:34:28;2.40;;;2.10;;
4921;SDS011;16625;53.624;10.106;2023-04-01T05:37:37;2.00;;;1.80;;
4921;SDS011;16625;53.624;10.106;2023-04-01T05:40:40;2.40;;;1.97;;
4921;SDS011;16625;53.624;10.106;2023-04-01T05:43:35;3.20;;;1.67;;
4921;SDS011;16625;53.624;10.106;2023-04-01T05:46:16;3.00;;;2.10;;
4921;SDS011;16625;53.624;10.106;2023-04-01T05:49:02;2.57;;;1.90;;
4921;SDS011;16625;53.624;10.106;2023-04-01T05:51:51;2.70;;;2.43;;
4921;SDS011;16625;53.624;10.106;2023-04-01T05:57:37;2.33;;;2.10;;
4921;SDS011;16625;53.624;10.106;2023-04-01T06:00:14;2.70;;;1.90;;
4921;SDS011;16625;53.624;10.106;2023-04-01T06:05:13;2.80;;;1.83;;
4921;SDS011;16625;53.624;10.106;2023-04-01T06:06:32;2.73;;;2.47;;
4921;SDS011;16625;53.624;10.106;2023-04-01T06:09:12;4.00;;;2.47;;
4921;SDS011;16625;53.624;10.106;2023-04-01T06:18:57;2.60;;;2.40;;
4921;SDS011;16625;53.624;10.106;2023-04-01T06:25:29;2.30;;;2.10;;
4921;SDS011;16625;53.624;10.106;2023-04-01T06:37:26;3.93;;;2.27;;
4921;SDS011;16625;53.624;10.106;2023-04-01T06:43:17;2.10;;;1.90;;
4921;SDS011;16625;53.624;10.106;2023-04-01T06:46:24;7.17;;;1.77;;
4921;SDS011;16625;53.624;10.106;2023-04-01T07:08:10;1.73;;;1.63;;
4921;SDS011;16625;53.624;10.106;2023-04-01T07:11:35;2.03;;;1.83;;
4921;SDS011;16625;53.624;10.106;2023-04-01T07:14:41;2.10;;;1.77;;
4921;SDS011;16625;53.624;10.106;2023-04-01T07:17:31;2.57;;;2.07;;
4921;SDS011;16625;53.624;10.106;2023-04-01T07:20:47;2.20;;;1.77;;
4921;SDS011;16625;53.624;10.106;2023-04-01T07:23:46;2.23;;;2.03;;
4921;SDS011;16625;53.624;10.106;2023-04-01T07:26:29;2.60;;;2.13;;
4921;SDS011;16625;53.624;10.106;2023-04-01T07:32:29;4.43;;;2.70;;
4921;SDS011;16625;53.624;10.106;2023-04-01T07:35:43;3.30;;;2.90;;
4921;SDS011;16625;53.624;10.106;2023-04-01T07:42:24;4.20;;;2.30;;
4921;SDS011;16625;53.624;10.106;2023-04-01T07:45:01;3.43;;;2.60;;
4921;SDS011;16625;53.624;10.106;2023-04-01T07:47:40;2.73;;;2.50;;
4921;SDS011;16625;53.624;10.106;2023-04-01T07:50:18;2.10;;;1.90;;
4921;SDS011;16625;53.624;10.106;2023-04-01T07:52:54;1.97;;;1.67;;
4921;SDS011;16625;53.624;10.106;2023-04-01T07:55:30;1.70;;;1.60;;
4921;SDS011;16625;53.624;10.106;2023-04-01T07:58:06;2.00;;;1.80;;
4921;SDS011;16625;53.624;10.106;2023-04-01T08:00:42;2.13;;;1.93;;
4921;SDS011;16625;53.624;10.106;2023-04-01T08:03:24;3.97;;;1.73;;
4921;SDS011;16625;53.624;10.106;2023-04-01T08:06:00;3.03;;;1.87;;
4921;SDS011;16625;53.624;10.106;2023-04-01T08:08:36;2.33;;;1.93;;
4921;SDS011;16625;53.624;10.106;2023-04-01T08:11:13;2.00;;;1.80;;
4921;SDS011;16625;53.624;10.106;2023-04-01T08:13:50;1.80;;;1.70;;
4921;SDS011;16625;53.624;10.106;2023-04-01T08:16:26;2.50;;;2.30;;
4921;SDS011;16625;53.624;10.106;2023-04-01T08:19:00;2.90;;;1.60;;
4921;SDS011;16625;53.624;10.106;2023-04-01T08:21:35;3.10;;;2.03;;
4921;SDS011;16625;53.624;10.106;2023-04-01T08:24:11;2.00;;;1.80;;
4921;SDS011;16625;53.624;10.106;2023-04-01T08:26:44;1.80;;;1.70;;
4921;SDS011;16625;53.624;10.106;2023-04-01T08:29:15;1.60;;;1.50;;
4921;SDS011;16625;53.624;10.106;2023-04-01T08:31:48;2.03;;;1.60;;
4921;SDS011;16625;53.624;10.106;2023-04-01T08:34:19;2.50;;;2.00;;
4921;SDS011;16625;53.624;10.106;2023-04-01T08:36:50;2.93;;;1.83;;
4921;SDS011;16625;53.624;10.106;2023-04-01T08:39:22;2.40;;;1.93;;
4921;SDS011;16625;53.624;10.106;2023-04-01T08:42:09;2.07;;;1.60;;
4921;SDS011;16625;53.624;10.106;2023-04-01T08:45:01;1.90;;;1.77;;
4921;SDS011;16625;53.624;10.106;2023-04-01T08:47:49;2.63;;;1.80;;
4921;SDS011;16625;53.624;10.106;2023-04-01T08:53:35;1.60;;;1.50;;
4921;SDS011;16625;53.624;10.106;2023-04-01T08:56:20;1.40;;;1.30;;
4921;SDS011;16625;53.624;10.106;2023-04-01T09:01:58;1.70;;;1.60;;
4921;SDS011;16625;53.624;10.106;2023-04-01T09:04:50;3.50;;;1.57;;
4921;SDS011;16625;53.624;10.106;2023-04-01T09:07:45;1.97;;;1.53;;
4921;SDS011;16625;53.624;10.106;2023-04-01T09:10:25;5.13;;;2.10;;
4921;SDS011;16625;53.624;10.106;2023-04-01T09:13:23;3.07;;;1.70;;
4921;SDS011;16625;53.624;10.106;2023-04-01T09:16:24;1.53;;;1.43;;
4921;SDS011;16625;53.624;10.106;2023-04-01T09:19:14;1.73;;;1.57;;
4921;SDS011;16625;53.624;10.106;2023-04-01T09:22:06;2.23;;;1.43;;
4921;SDS011;16625;53.624;10.106;2023-04-01T09:24:53;3.10;;;1.53;;
4921;SDS011;16625;53.624;10.106;2023-04-01T09:27:33;1.60;;;1.50;;
4921;SDS011;16625;53.624;10.106;2023-04-01T09:33:30;2.63;;;1.63;;
4921;SDS011;16625;53.624;10.106;2023-04-01T09:36:38;1.83;;;1.63;;
4921;SDS011;16625;53.624;10.106;2023-04-01T09:39:22;2.53;;;1.80;;
4921;SDS011;16625;53.624;10.106;2023-04-01T09:42:07;2.30;;;2.10;;
4921;SDS011;16625;53.624;10.106;2023-04-01T09:44:53;2.20;;;2.00;;
4921;SDS011;16625;53.624;10.106;2023-04-01T09:47:34;1.73;;;1.60;;
4921;SDS011;16625;53.624;10.106;2023-04-01T09:50:16;2.67;;;1.77;;
4921;SDS011;16625;53.624;10.106;2023-04-01T09:52:54;1.60;;;1.50;;
4921;SDS011;16625;53.624;10.106;2023-04-01T09:58:52;5.40;;;1.63;;
4921;SDS011;16625;53.624;10.106;2023-04-01T10:02:02;1.77;;;1.67;;
4921;SDS011;16625;53.624;10.106;2023-04-01T10:11:37;2.43;;;1.50;;
4921;SDS011;16625;53.624;10.106;2023-04-01T10:14:25;2.77;;;1.90;;
4921;SDS011;16625;53.624;10.106;2023-04-01T10:23:23;2.20;;;1.70;;
4921;SDS011;16625;53.624;10.106;2023-04-01T10:26:12;2.07;;;1.87;;
4921;SDS011;16625;53.624;10.106;2023-04-01T10:29:00;1.70;;;1.60;;
4921;SDS011;16625;53.624;10.106;2023-04-01T10:41:24;1.70;;;1.60;;
4921;SDS011;16625;53.624;10.106;2023-04-01T10:44:15;3.10;;;2.03;;
4921;SDS011;16625;53.624;10.106;2023-04-01T10:47:12;1.80;;;1.70;;
4921;SDS011;16625;53.624;10.106;2023-04-01T10:50:12;2.00;;;1.80;;
4921;SDS011;16625;53.624;10.106;2023-04-01T10:53:15;2.00;;;1.60;;
4921;SDS011;16625;53.624;10.106;2023-04-01T10:56:14;1.90;;;1.60;;
4921;SDS011;16625;53.624;10.106;2023-04-01T10:59:03;1.70;;;1.60;;
4921;SDS011;16625;53.624;10.106;2023-04-01T11:02:07;2.03;;;1.87;;
4921;SDS011;16625;53.624;10.106;2023-04-01T11:11:20;3.27;;;1.90;;
4921;SDS011;16625;53.624;10.106;2023-04-01T11:14:25;2.70;;;1.60;;
4921;SDS011;16625;53.624;10.106;2023-04-01T11:17:27;1.90;;;1.80;;
4921;SDS011;16625;53.624;10.106;2023-04-01T11:20:28;2.10;;;1.90;;
4921;SDS011;16625;53.624;10.106;2023-04-01T11:23:22;3.57;;;2.20;;
4921;SDS011;16625;53.624;10.106;2023-04-01T11:26:20;2.67;;;2.00;;
4921;SDS011;16625;53.624;10.106;2023-04-01T11:32:04;2.50;;;2.30;;
4921;SDS011;16625;53.624;10.106;2023-04-01T11:34:43;2.70;;;2.20;;
4921;SDS011;16625;53.624;10.106;2023-04-01T11:37:25;3.03;;;2.20;;
4921;SDS011;16625;53.624;10.106;2023-04-01T11:40:05;10.13;;;2.60;;
4921;SDS011;16625;53.624;10.106;2023-04-01T11:42:42;3.20;;;2.83;;
4921;SDS011;16625;53.624;10.106;2023-04-01T11:45:18;4.87;;;2.20;;
4921;SDS011;16625;53.624;10.106;2023-04-01T11:47:54;4.23;;;3.60;;
4921;SDS011;16625;53.624;10.106;2023-04-01T11:50:35;4.37;;;2.40;;
4921;SDS011;16625;53.624;10.106;2023-04-01T11:53:21;3.73;;;3.17;;
4921;SDS011;16625;53.624;10.106;2023-04-01T11:55:54;2.57;;;2.33;;
4921;SDS011;16625;53.624;10.106;2023-04-01T11:58:40;4.47;;;3.27;;
4921;SDS011;16625;53.624;10.106;2023-04-01T12:01:25;4.00;;;2.63;;
4921;SDS011;16625;53.624;10.106;2023-04-01T12:07:12;5.10;;;3.70;;
4921;SDS011;16625;53.624;10.106;2023-04-01T12:09:48;3.43;;;2.70;;
4921;SDS011;16625;53.624;10.106;2023-04-01T12:12:24;5.23;;;3.27;;
4921;SDS011;16625;53.624;10.106;2023-04-01T12:15:00;4.07;;;2.93;;
4921;SDS011;16625;53.624;10.106;2023-04-01T12:17:39;4.17;;;3.10;;
4921;SDS011;16625;53.624;10.106;2023-04-01T12:20:22;2.67;;;2.40;;
4921;SDS011;16625;53.624;10.106;2023-04-01T12:23:01;8.50;;;3.57;;
4921;SDS011;16625;53.624;10.106;2023-04-01T12:25:43;7.47;;;3.70;;
4921;SDS011;16625;53.624;10.106;2023-04-01T12:28:36;9.93;;;2.93;;
4921;SDS011;16625;53.624;10.106;2023-04-01T12:31:18;3.30;;;2.80;;
4921;SDS011;16625;53.624;10.106;2023-04-01T12:37:02;4.73;;;3.20;;
4921;SDS011;16625;53.624;10.106;2023-04-01T12:39:43;5.10;;;3.47;;
4921;SDS011;16625;53.624;10.106;2023-04-01T12:42:20;4.40;;;3.50;;
4921;SDS011;16625;53.624;10.106;2023-04-01T12:45:08;5.97;;;3.80;;
4921;SDS011;16625;53.624;10.106;2023-04-01T12:48:06;5.23;;;3.40;;
4921;SDS011;16625;53.624;10.106;2023-04-01T12:51:00;5.00;;;3.43;;
4921;SDS011;16625;53.624;10.106;2023-04-01T12:53:43;3.87;;;3.27;;
4921;SDS011;16625;53.624;10.106;2023-04-01T12:56:36;3.43;;;2.90;;
4921;SDS011;16625;53.624;10.106;2023-04-01T12:59:24;2.80;;;2.50;;
4921;SDS011;16625;53.624;10.106;2023-04-01T13:02:00;3.37;;;2.47;;
4921;SDS011;16625;53.624;10.106;2023-04-01T13:07:41;4.17;;;2.40;;
4921;SDS011;16625;53.624;10.106;2023-04-01T13:13:34;7.20;;;3.93;;
4921;SDS011;16625;53.624;10.106;2023-04-01T13:16:29;4.23;;;2.50;;
4921;SDS011;16625;53.624;10.106;2023-04-01T13:18:58;3.93;;;3.30;;
4921;SDS011;16625;53.624;10.106;2023-04-01T13:21:34;3.67;;;2.80;;
4921;SDS011;16625;53.624;10.106;2023-04-01T13:24:11;12.63;;;4.00;;
4921;SDS011;16625;53.624;10.106;2023-04-01T13:26:53;5.50;;;3.30;;
4921;SDS011;16625;53.624;10.106;2023-04-01T13:29:27;9.40;;;3.33;;
4921;SDS011;16625;53.624;10.106;2023-04-01T13:32:05;5.73;;;3.00;;
4921;SDS011;16625;53.624;10.106;2023-04-01T13:34:48;3.40;;;3.10;;
4921;SDS011;16625;53.624;10.106;2023-04-01T13:37:30;4.40;;;3.30;;
4921;SDS011;16625;53.624;10.106;2023-04-01T13:40:15;6.00;;;4.80;;
4921;SDS011;16625;53.624;10.106;2023-04-01T13:43:07;5.57;;;2.70;;
4921;SDS011;16625;53.624;10.106;2023-04-01T13:45:42;3.67;;;3.37;;
4921;SDS011;16625;53.624;10.106;2023-04-01T13:48:26;5.80;;;3.30;;
4921;SDS011;16625;53.624;10.106;2023-04-01T13:51:17;4.30;;;3.30;;
4921;SDS011;16625;53.624;10.106;2023-04-01T13:53:56;7.10;;;3.80;;
4921;SDS011;16625;53.624;10.106;2023-04-01T13:56:34;4.27;;;3.87;;
4921;SDS011;16625;53.624;10.106;2023-04-01T14:05:24;5.37;;;3.40;;
4921;SDS011;16625;53.624;10.106;2023-04-01T14:08:15;4.07;;;3.57;;
4921;SDS011;16625;53.624;10.106;2023-04-01T14:10:54;4.97;;;3.97;;
4921;SDS011;16625;53.624;10.106;2023-04-01T14:13:31;4.93;;;4.07;;
4921;SDS011;16625;53.624;10.106;2023-04-01T14:16:19;7.63;;;3.80;;
4921;SDS011;16625;53.624;10.106;2023-04-01T14:19:02;5.27;;;3.80;;
4921;SDS011;16625;53.624;10.106;2023-04-01T14:21:38;4.63;;;3.87;;
4921;SDS011;16625;53.624;10.106;2023-04-01T14:24:18;5.50;;;4.00;;
4921;SDS011;16625;53.624;10.106;2023-04-01T14:27:09;5.53;;;3.20;;
4921;SDS011;16625;53.624;10.106;2023-04-01T14:30:20;6.90;;;4.07;;
4921;SDS011;16625;53.624;10.106;2023-04-01T14:33:10;5.00;;;3.97;;
4921;SDS011;16625;53.624;10.106;2023-04-01T14:35:49;7.63;;;4.37;;
4921;SDS011;16625;53.624;10.106;2023-04-01T14:38:30;11.77;;;7.10;;
4921;SDS011;16625;53.624;10.106;2023-04-01T14:41:19;4.60;;;3.43;;
4921;SDS011;16625;53.624;10.106;2023-04-01T14:47:02;5.93;;;4.07;;
4921;SDS011;16625;53.624;10.106;2023-04-01T14:50:04;6.07;;;4.10;;
4921;SDS011;16625;53.624;10.106;2023-04-01T14:52:36;5.27;;;4.30;;
4921;SDS011;16625;53.624;10.106;2023-04-01T14:55:15;6.47;;;4.00;;
4921;SDS011;16625;53.624;10.106;2023-04-01T14:58:07;6.10;;;4.73;;
4921;SDS011;16625;53.624;10.106;2023-04-01T15:00:41;8.43;;;4.53;;
4921;SDS011;16625;53.624;10.106;2023-04-01T15:03:16;6.17;;;4.50;;
4921;SDS011;16625;53.624;10.106;2023-04-01T15:05:54;7.00;;;4.40;;
4921;SDS011;16625;53.624;10.106;2023-04-01T15:08:41;6.70;;;3.87;;
4921;SDS011;16625;53.624;10.106;2023-04-01T15:11:21;13.33;;;4.47;;
4921;SDS011;16625;53.624;10.106;2023-04-01T15:16:59;5.83;;;3.40;;
4921;SDS011;16625;53.624;10.106;2023-04-01T15:19:47;9.93;;;4.40;;
4921;SDS011;16625;53.624;10.106;2023-04-01T15:25:24;12.83;;;4.57;;
4921;SDS011;16625;53.624;10.106;2023-04-01T15:28:15;6.13;;;4.53;;
4921;SDS011;16625;53.624;10.106;2023-04-01T15:30:53;9.93;;;4.87;;
4921;SDS011;16625;53.624;10.106;2023-04-01T15:33:27;7.07;;;4.83;;
4921;SDS011;16625;53.624;10.106;2023-04-01T15:36:14;7.60;;;5.27;;
4921;SDS011;16625;53.624;10.106;2023-04-01T15:38:52;6.50;;;4.87;;
4921;SDS011;16625;53.624;10.106;2023-04-01T15:41:28;8.30;;;4.40;;
4921;SDS011;16625;53.624;10.106;2023-04-01T15:47:19;11.63;;;5.40;;
4921;SDS011;16625;53.624;10.106;2023-04-01T15:50:02;11.63;;;5.80;;
4921;SDS011;16625;53.624;10.106;2023-04-01T15:52:50;9.07;;;5.20;;
4921;SDS011;16625;53.624;10.106;2023-04-01T15:55:37;9.77;;;5.20;;
4921;SDS011;16625;53.624;10.106;2023-04-01T15:58:21;7.43;;;5.40;;
4921;SDS011;16625;53.624;10.106;2023-04-01T16:01:06;9.20;;;5.20;;
4921;SDS011;16625;53.624;10.106;2023-04-01T16:03:43;8.20;;;4.60;;
4921;SDS011;16625;53.624;10.106;2023-04-01T16:09:23;9.10;;;5.30;;
4921;SDS011;16625;53.624;10.106;2023-04-01T16:12:11;6.77;;;5.43;;
4921;SDS011;16625;53.624;10.106;2023-04-01T16:14:47;6.43;;;4.10;;
4921;SDS011;16625;53.624;10.106;2023-04-01T16:17:26;3.77;;;3.47;;
4921;SDS011;16625;53.624;10.106;2023-04-01T16:20:17;10.03;;;5.83;;
4921;SDS011;16625;53.624;10.106;2023-04-01T16:22:49;5.37;;;4.60;;
4921;SDS011;16625;53.624;10.106;2023-04-01T16:25:26;7.80;;;5.57;;
4921;SDS011;16625;53.624;10.106;2023-04-01T16:28:08;8.23;;;4.50;;
4921;SDS011;16625;53.624;10.106;2023-04-01T16:30:54;6.27;;;4.50;;
4921;SDS011;16625;53.624;10.106;2023-04-01T16:33:27;6.60;;;5.03;;
4921;SDS011;16625;53.624;10.106;2023-04-01T16:36:07;7.00;;;5.57;;
4921;SDS011;16625;53.624;10.106;2023-04-01T16:38:40;20.23;;;5.20;;
4921;SDS011;16625;53.624;10.106;2023-04-01T16:41:11;13.87;;;5.47;;
4921;SDS011;16625;53.624;10.106;2023-04-01T16:43:55;11.53;;;5.33;;
4921;SDS011;16625;53.624;10.106;2023-04-01T16:46:36;14.13;;;7.60;;
4921;SDS011;16625;53.624;10.106;2023-04-01T16:49:17;10.20;;;5.70;;
4921;SDS011;16625;53.624;10.106;2023-04-01T16:51:59;9.77;;;4.20;;
4921;SDS011;16625;53.624;10.106;2023-04-01T16:54:41;7.87;;;4.93;;
4921;SDS011;16625;53.624;10.106;2023-04-01T16:57:16;12.50;;;6.00;;
4921;SDS011;16625;53.624;10.106;2023-04-01T17:00:00;10.13;;;4.67;;
4921;SDS011;16625;53.624;10.106;2023-04-01T17:02:43;14.57;;;5.77;;
4921;SDS011;16625;53.624;10.106;2023-04-01T17:05:18;7.03;;;5.27;;
4921;SDS011;16625;53.624;10.106;2023-04-01T17:08:05;8.10;;;4.00;;
4921;SDS011;16625;53.624;10.106;2023-04-01T17:10:45;5.77;;;3.60;;
4921;SDS011;16625;53.624;10.106;2023-04-01T17:16:24;7.80;;;4.33;;
4921;SDS011;16625;53.624;10.106;2023-04-01T17:19:06;11.60;;;4.43;;
4921;SDS011;16625;53.624;10.106;2023-04-01T17:21:54;6.87;;;3.57;;
4921;SDS011;16625;53.624;10.106;2023-04-01T17:24:32;6.50;;;4.60;;
4921;SDS011;16625;53.624;10.106;2023-04-01T17:27:13;6.07;;;4.20;;
4921;SDS011;16625;53.624;10.106;2023-04-01T17:29:57;8.60;;;3.60;;
4921;SDS011;16625;53.624;10.106;2023-04-01T17:32:50;4.80;;;3.67;;
4921;SDS011;16625;53.624;10.106;2023-04-01T17:35:40;4.30;;;3.87;;
4921;SDS011;16625;53.624;10.106;2023-04-01T17:38:19;5.57;;;3.70;;
4921;SDS011;16625;53.624;10.106;2023-04-01T17:40:57;5.60;;;3.73;;
4921;SDS011;16625;53.624;10.106;2023-04-01T17:43:35;5.70;;;4.20;;
4921;SDS011;16625;53.624;10.106;2023-04-01T17:46:19;14.53;;;4.17;;
4921;SDS011;16625;53.624;10.106;2023-04-01T17:49:00;6.50;;;4.27;;
4921;SDS011;16625;53.624;10.106;2023-04-01T17:51:44;7.40;;;3.10;;
4921;SDS011;16625;53.624;10.106;2023-04-01T17:54:21;5.60;;;3.87;;
4921;SDS011;16625;53.624;10.106;2023-04-01T17:57:00;4.43;;;3.23;;
4921;SDS011;16625;53.624;10.106;2023-04-01T17:59:49;4.60;;;3.50;;
4921;SDS011;16625;53.624;10.106;2023-04-01T18:02:25;5.30;;;3.03;;
4921;SDS011;16625;53.624;10.106;2023-04-01T18:05:05;4.30;;;3.70;;
4921;SDS011;16625;53.624;10.106;2023-04-01T18:10:51;4.57;;;3.20;;
4921;SDS011;16625;53.624;10.106;2023-04-01T18:13:44;4.83;;;3.33;;
4921;SDS011;16625;53.624;10.106;2023-04-01T18:16:30;12.57;;;3.67;;
4921;SDS011;16625;53.624;10.106;2023-04-01T18:19:25;4.57;;;3.83;;
4921;SDS011;16625;53.624;10.106;2023-04-01T18:22:08;5.50;;;3.70;;
4921;SDS011;16625;53.624;10.106;2023-04-01T18:24:48;9.10;;;3.87;;
4921;SDS011;16625;53.624;10.106;2023-04-01T18:27:29;6.10;;;3.87;;
4921;SDS011;16625;53.624;10.106;2023-04-01T18:30:00;6.50;;;3.60;;
4921;SDS011;16625;53.624;10.106;2023-04-01T18:32:36;5.17;;;3.67;;
4921;SDS011;16625;53.624;10.106;2023-04-01T18:35:15;6.77;;;3.60;;
4921;SDS011;16625;53.624;10.106;2023-04-01T18:37:51;4.03;;;3.33;;
4921;SDS011;16625;53.624;10.106;2023-04-01T18:40:23;7.87;;;4.60;;
4921;SDS011;16625;53.624;10.106;2023-04-01T18:42:59;6.87;;;3.60;;
4921;SDS011;16625;53.624;10.106;2023-04-01T18:45:44;8.60;;;3.63;;
4921;SDS011;16625;53.624;10.106;2023-04-01T18:48:30;8.20;;;3.10;;
4921;SDS011;16625;53.624;10.106;2023-04-01T18:51:11;5.07;;;3.70;;
4921;SDS011;16625;53.624;10.106;2023-04-01T18:53:48;4.60;;;3.90;;
4921;SDS011;16625;53.624;10.106;2023-04-01T18:56:24;5.10;;;3.43;;
4921;SDS011;16625;53.624;10.106;2023-04-01T18:58:59;10.40;;;3.80;;
4921;SDS011;16625;53.624;10.106;2023-04-01T19:01:33;4.37;;;3.30;;